Big Cove, Alabama
Current Conditions -  °F | °C
As of 8:58 PM on Friday 19 Dec 2014 (Local Time) from KHUA Reporting Station
Broken Clouds Broken Clouds  
Wind Chill: 34°   Ceiling: 7000
Heat Index: 39°   Visibility: 10mi
Dew Point: 30°   Wind: 8mph
Humidity: 70%   Direction: 30°NNE
Pressure: 30.19"   Gusts: NA
Location:  34.611°N, 86.4644°W
Report Text: KHUA 200258Z AUTO 03007KT 10SM BKN070 BKN095 04/M01 A3019 RMK AO2 SLP228 P0000 60000 53003
Loading
Personal Weather Stations






























Interactive Weather Map New forecast layout! Learn more

10-Day Weather Forecast

Advertisements
Track Severe Weather on mobile